sensor_id;sensor_type;location;lat;lon;timestamp;P1;durP1;ratioP1;P2;durP2;ratioP2
355;SDS011;62514;48.112;11.566;2024-03-23T00:53:52;462.27;;;140.30;;
355;SDS011;62514;48.112;11.566;2024-03-23T00:56:18;416.90;;;112.73;;
355;SDS011;62514;48.112;11.566;2024-03-23T00:58:44;384.60;;;93.80;;
355;SDS011;62514;48.112;11.566;2024-03-23T01:01:10;373.57;;;87.53;;
355;SDS011;62514;48.112;11.566;2024-03-23T01:03:36;477.40;;;145.93;;
355;SDS011;62514;48.112;11.566;2024-03-23T01:06:03;476.20;;;140.23;;
355;SDS011;62514;48.112;11.566;2024-03-23T01:08:29;455.27;;;131.40;;
355;SDS011;62514;48.112;11.566;2024-03-23T01:10:59;401.87;;;104.17;;
355;SDS011;62514;48.112;11.566;2024-03-23T01:13:26;434.23;;;120.20;;
355;SDS011;62514;48.112;11.566;2024-03-23T01:15:52;442.23;;;126.80;;
355;SDS011;62514;48.112;11.566;2024-03-23T01:18:19;400.80;;;101.33;;
355;SDS011;62514;48.112;11.566;2024-03-23T01:20:46;400.40;;;101.10;;
355;SDS011;62514;48.112;11.566;2024-03-23T01:23:13;418.93;;;110.57;;
355;SDS011;62514;48.112;11.566;2024-03-23T01:25:39;411.87;;;106.37;;
355;SDS011;62514;48.112;11.566;2024-03-23T01:28:05;403.53;;;104.57;;
355;SDS011;62514;48.112;11.566;2024-03-23T01:30:32;442.73;;;123.80;;
355;SDS011;62514;48.112;11.566;2024-03-23T01:32:59;409.20;;;108.47;;
355;SDS011;62514;48.112;11.566;2024-03-23T01:35:25;404.10;;;102.63;;
355;SDS011;62514;48.112;11.566;2024-03-23T01:37:51;400.57;;;103.70;;
355;SDS011;62514;48.112;11.566;2024-03-23T01:40:17;408.27;;;107.37;;
355;SDS011;62514;48.112;11.566;2024-03-23T01:42:54;403.97;;;106.20;;
355;SDS011;62514;48.112;11.566;2024-03-23T01:45:21;399.27;;;102.57;;
355;SDS011;62514;48.112;11.566;2024-03-23T01:47:47;401.47;;;101.70;;
355;SDS011;62514;48.112;11.566;2024-03-23T01:50:14;419.53;;;115.60;;
355;SDS011;62514;48.112;11.566;2024-03-23T01:52:40;446.67;;;129.33;;
355;SDS011;62514;48.112;11.566;2024-03-23T01:55:06;447.27;;;129.27;;
355;SDS011;62514;48.112;11.566;2024-03-23T01:57:32;456.23;;;134.13;;
355;SDS011;62514;48.112;11.566;2024-03-23T01:59:58;420.47;;;112.43;;
355;SDS011;62514;48.112;11.566;2024-03-23T02:02:24;467.83;;;140.93;;
355;SDS011;62514;48.112;11.566;2024-03-23T02:04:50;407.83;;;105.40;;
355;SDS011;62514;48.112;11.566;2024-03-23T02:07:16;405.40;;;106.20;;
355;SDS011;62514;48.112;11.566;2024-03-23T02:09:43;436.37;;;120.77;;
355;SDS011;62514;48.112;11.566;2024-03-23T02:12:09;403.70;;;104.17;;
355;SDS011;62514;48.112;11.566;2024-03-23T02:14:35;411.87;;;108.13;;
355;SDS011;62514;48.112;11.566;2024-03-23T02:17:01;407.83;;;108.07;;
355;SDS011;62514;48.112;11.566;2024-03-23T02:19:27;410.53;;;110.40;;
355;SDS011;62514;48.112;11.566;2024-03-23T02:21:53;454.07;;;131.97;;
355;SDS011;62514;48.112;11.566;2024-03-23T02:24:19;448.10;;;131.70;;
355;SDS011;62514;48.112;11.566;2024-03-23T02:26:45;467.43;;;142.83;;
355;SDS011;62514;48.112;11.566;2024-03-23T02:29:13;463.10;;;139.67;;
355;SDS011;62514;48.112;11.566;2024-03-23T02:31:40;452.47;;;132.63;;
355;SDS011;62514;48.112;11.566;2024-03-23T02:34:06;459.53;;;141.00;;
355;SDS011;62514;48.112;11.566;2024-03-23T02:36:32;452.03;;;131.73;;
355;SDS011;62514;48.112;11.566;2024-03-23T02:38:58;453.27;;;135.73;;
355;SDS011;62514;48.112;11.566;2024-03-23T02:41:24;411.03;;;110.23;;
355;SDS011;62514;48.112;11.566;2024-03-23T02:43:50;387.67;;;95.20;;
355;SDS011;62514;48.112;11.566;2024-03-23T02:46:16;389.77;;;98.97;;
355;SDS011;62514;48.112;11.566;2024-03-23T02:48:42;399.77;;;102.47;;
355;SDS011;62514;48.112;11.566;2024-03-23T02:51:08;395.90;;;102.37;;
355;SDS011;62514;48.112;11.566;2024-03-23T02:53:34;400.13;;;104.17;;
355;SDS011;62514;48.112;11.566;2024-03-23T02:56:00;400.53;;;98.80;;
355;SDS011;62514;48.112;11.566;2024-03-23T02:58:26;415.93;;;113.40;;
355;SDS011;62514;48.112;11.566;2024-03-23T03:00:52;442.27;;;121.63;;
355;SDS011;62514;48.112;11.566;2024-03-23T03:03:18;436.47;;;122.67;;
355;SDS011;62514;48.112;11.566;2024-03-23T03:05:44;387.70;;;97.47;;
355;SDS011;62514;48.112;11.566;2024-03-23T03:08:10;389.43;;;99.73;;
355;SDS011;62514;48.112;11.566;2024-03-23T03:10:36;398.03;;;103.07;;
355;SDS011;62514;48.112;11.566;2024-03-23T03:13:02;399.70;;;102.47;;
355;SDS011;62514;48.112;11.566;2024-03-23T03:15:28;413.87;;;109.60;;
355;SDS011;62514;48.112;11.566;2024-03-23T03:17:54;396.13;;;95.87;;
355;SDS011;62514;48.112;11.566;2024-03-23T03:20:23;390.97;;;96.07;;
355;SDS011;62514;48.112;11.566;2024-03-23T03:22:49;430.47;;;117.20;;
355;SDS011;62514;48.112;11.566;2024-03-23T03:25:15;410.83;;;107.77;;
355;SDS011;62514;48.112;11.566;2024-03-23T03:27:41;431.40;;;115.37;;
355;SDS011;62514;48.112;11.566;2024-03-23T03:30:07;388.97;;;95.50;;
355;SDS011;62514;48.112;11.566;2024-03-23T03:32:34;439.97;;;122.30;;
355;SDS011;62514;48.112;11.566;2024-03-23T03:35:00;462.47;;;133.63;;
355;SDS011;62514;48.112;11.566;2024-03-23T03:37:26;413.77;;;109.50;;
355;SDS011;62514;48.112;11.566;2024-03-23T03:39:52;386.93;;;96.37;;
355;SDS011;62514;48.112;11.566;2024-03-23T03:42:18;381.33;;;92.03;;
355;SDS011;62514;48.112;11.566;2024-03-23T03:44:44;375.07;;;88.70;;
355;SDS011;62514;48.112;11.566;2024-03-23T03:47:10;361.50;;;83.93;;
355;SDS011;62514;48.112;11.566;2024-03-23T03:49:36;370.10;;;86.80;;
355;SDS011;62514;48.112;11.566;2024-03-23T03:52:02;364.83;;;85.67;;
355;SDS011;62514;48.112;11.566;2024-03-23T03:54:28;367.90;;;84.77;;
355;SDS011;62514;48.112;11.566;2024-03-23T03:56:54;382.57;;;95.03;;
355;SDS011;62514;48.112;11.566;2024-03-23T03:59:20;378.33;;;92.67;;
355;SDS011;62514;48.112;11.566;2024-03-23T04:01:46;411.83;;;109.50;;
355;SDS011;62514;48.112;11.566;2024-03-23T04:04:12;367.27;;;87.00;;
355;SDS011;62514;48.112;11.566;2024-03-23T04:06:39;384.97;;;96.70;;
355;SDS011;62514;48.112;11.566;2024-03-23T04:09:05;386.47;;;96.50;;
355;SDS011;62514;48.112;11.566;2024-03-23T04:11:32;376.40;;;93.47;;
355;SDS011;62514;48.112;11.566;2024-03-23T04:13:58;371.83;;;90.67;;
355;SDS011;62514;48.112;11.566;2024-03-23T04:16:24;367.17;;;87.53;;
355;SDS011;62514;48.112;11.566;2024-03-23T04:18:54;390.67;;;97.57;;
355;SDS011;62514;48.112;11.566;2024-03-23T04:21:21;399.73;;;102.50;;
355;SDS011;62514;48.112;11.566;2024-03-23T04:23:48;384.70;;;96.17;;
355;SDS011;62514;48.112;11.566;2024-03-23T04:26:15;371.30;;;90.50;;
355;SDS011;62514;48.112;11.566;2024-03-23T04:28:41;383.90;;;95.93;;
355;SDS011;62514;48.112;11.566;2024-03-23T04:31:08;381.43;;;93.23;;
355;SDS011;62514;48.112;11.566;2024-03-23T04:33:34;379.13;;;92.90;;
355;SDS011;62514;48.112;11.566;2024-03-23T04:36:00;381.70;;;93.70;;
355;SDS011;62514;48.112;11.566;2024-03-23T04:38:26;371.30;;;88.70;;
355;SDS011;62514;48.112;11.566;2024-03-23T04:40:56;384.00;;;92.27;;
355;SDS011;62514;48.112;11.566;2024-03-23T04:43:22;374.23;;;90.30;;
355;SDS011;62514;48.112;11.566;2024-03-23T04:45:49;374.67;;;88.87;;
355;SDS011;62514;48.112;11.566;2024-03-23T04:48:15;380.23;;;92.67;;
355;SDS011;62514;48.112;11.566;2024-03-23T04:50:41;383.97;;;93.27;;
355;SDS011;62514;48.112;11.566;2024-03-23T04:53:07;385.20;;;93.53;;
355;SDS011;62514;48.112;11.566;2024-03-23T04:55:33;382.33;;;93.87;;
355;SDS011;62514;48.112;11.566;2024-03-23T04:57:59;374.53;;;89.87;;
355;SDS011;62514;48.112;11.566;2024-03-23T05:00:25;384.57;;;93.87;;
355;SDS011;62514;48.112;11.566;2024-03-23T05:02:51;382.90;;;92.73;;
355;SDS011;62514;48.112;11.566;2024-03-23T05:05:18;371.90;;;90.50;;
355;SDS011;62514;48.112;11.566;2024-03-23T05:07:44;370.13;;;88.60;;
355;SDS011;62514;48.112;11.566;2024-03-23T05:10:10;374.97;;;91.17;;
355;SDS011;62514;48.112;11.566;2024-03-23T05:12:37;380.27;;;93.97;;
355;SDS011;62514;48.112;11.566;2024-03-23T05:15:04;378.10;;;90.80;;
355;SDS011;62514;48.112;11.566;2024-03-23T05:17:31;379.87;;;92.77;;
355;SDS011;62514;48.112;11.566;2024-03-23T05:19:58;368.13;;;87.03;;
355;SDS011;62514;48.112;11.566;2024-03-23T05:22:24;370.27;;;87.13;;
355;SDS011;62514;48.112;11.566;2024-03-23T05:24:50;365.67;;;87.50;;
355;SDS011;62514;48.112;11.566;2024-03-23T05:27:16;367.83;;;86.17;;
355;SDS011;62514;48.112;11.566;2024-03-23T05:29:42;363.83;;;84.07;;
355;SDS011;62514;48.112;11.566;2024-03-23T05:32:08;367.83;;;86.83;;
355;SDS011;62514;48.112;11.566;2024-03-23T05:34:34;377.83;;;91.57;;
355;SDS011;62514;48.112;11.566;2024-03-23T05:37:00;367.50;;;88.37;;
355;SDS011;62514;48.112;11.566;2024-03-23T05:39:26;368.67;;;88.97;;
355;SDS011;62514;48.112;11.566;2024-03-23T05:41:52;369.17;;;87.07;;
355;SDS011;62514;48.112;11.566;2024-03-23T05:44:18;351.10;;;81.23;;
355;SDS011;62514;48.112;11.566;2024-03-23T05:46:45;368.73;;;88.70;;
355;SDS011;62514;48.112;11.566;2024-03-23T05:49:14;366.40;;;86.87;;
355;SDS011;62514;48.112;11.566;2024-03-23T05:51:41;364.90;;;86.57;;
355;SDS011;62514;48.112;11.566;2024-03-23T05:54:07;360.30;;;83.93;;
355;SDS011;62514;48.112;11.566;2024-03-23T05:56:33;374.40;;;88.83;;
355;SDS011;62514;48.112;11.566;2024-03-23T05:58:59;366.40;;;90.77;;
355;SDS011;62514;48.112;11.566;2024-03-23T06:01:25;355.47;;;82.00;;
355;SDS011;62514;48.112;11.566;2024-03-23T06:03:54;366.97;;;87.37;;
355;SDS011;62514;48.112;11.566;2024-03-23T06:06:20;369.27;;;86.97;;
355;SDS011;62514;48.112;11.566;2024-03-23T06:08:46;363.87;;;88.03;;
355;SDS011;62514;48.112;11.566;2024-03-23T06:11:12;376.20;;;92.53;;
355;SDS011;62514;48.112;11.566;2024-03-23T06:13:38;369.17;;;89.23;;
355;SDS011;62514;48.112;11.566;2024-03-23T06:16:05;377.73;;;93.00;;
355;SDS011;62514;48.112;11.566;2024-03-23T06:18:32;378.77;;;91.93;;
355;SDS011;62514;48.112;11.566;2024-03-23T06:20:58;378.23;;;90.97;;
355;SDS011;62514;48.112;11.566;2024-03-23T06:23:24;380.90;;;92.33;;
355;SDS011;62514;48.112;11.566;2024-03-23T06:25:50;371.07;;;86.87;;
355;SDS011;62514;48.112;11.566;2024-03-23T06:28:16;382.93;;;94.80;;
355;SDS011;62514;48.112;11.566;2024-03-23T06:30:43;373.33;;;91.03;;
355;SDS011;62514;48.112;11.566;2024-03-23T06:33:09;384.33;;;97.47;;
355;SDS011;62514;48.112;11.566;2024-03-23T06:35:35;386.63;;;98.83;;
355;SDS011;62514;48.112;11.566;2024-03-23T06:38:01;397.17;;;98.93;;
355;SDS011;62514;48.112;11.566;2024-03-23T06:40:27;395.93;;;103.90;;
355;SDS011;62514;48.112;11.566;2024-03-23T06:42:53;408.47;;;109.07;;
355;SDS011;62514;48.112;11.566;2024-03-23T06:45:19;413.07;;;102.03;;
355;SDS011;62514;48.112;11.566;2024-03-23T06:47:48;391.07;;;101.57;;
355;SDS011;62514;48.112;11.566;2024-03-23T06:50:15;406.07;;;108.13;;
355;SDS011;62514;48.112;11.566;2024-03-23T06:52:41;403.57;;;107.17;;
355;SDS011;62514;48.112;11.566;2024-03-23T06:55:07;410.57;;;109.37;;
355;SDS011;62514;48.112;11.566;2024-03-23T06:57:33;413.87;;;107.57;;
355;SDS011;62514;48.112;11.566;2024-03-23T07:00:00;409.13;;;109.30;;
355;SDS011;62514;48.112;11.566;2024-03-23T07:02:26;429.73;;;116.23;;
355;SDS011;62514;48.112;11.566;2024-03-23T07:04:51;423.57;;;116.97;;
355;SDS011;62514;48.112;11.566;2024-03-23T07:07:17;435.13;;;122.47;;
355;SDS011;62514;48.112;11.566;2024-03-23T07:09:43;428.00;;;119.27;;
355;SDS011;62514;48.112;11.566;2024-03-23T07:12:09;436.37;;;121.43;;
355;SDS011;62514;48.112;11.566;2024-03-23T07:14:35;446.33;;;125.17;;
355;SDS011;62514;48.112;11.566;2024-03-23T07:17:01;454.70;;;136.60;;
355;SDS011;62514;48.112;11.566;2024-03-23T07:19:27;451.53;;;135.63;;
355;SDS011;62514;48.112;11.566;2024-03-23T07:21:53;451.37;;;135.87;;
355;SDS011;62514;48.112;11.566;2024-03-23T07:24:19;463.27;;;138.97;;
355;SDS011;62514;48.112;11.566;2024-03-23T07:26:45;462.13;;;141.83;;
355;SDS011;62514;48.112;11.566;2024-03-23T07:29:12;449.77;;;131.00;;
355;SDS011;62514;48.112;11.566;2024-03-23T07:31:38;456.67;;;138.73;;
355;SDS011;62514;48.112;11.566;2024-03-23T07:34:04;461.77;;;138.83;;
355;SDS011;62514;48.112;11.566;2024-03-23T07:36:31;502.37;;;169.33;;
355;SDS011;62514;48.112;11.566;2024-03-23T07:38:57;468.93;;;147.00;;
355;SDS011;62514;48.112;11.566;2024-03-23T07:41:23;466.23;;;145.73;;
355;SDS011;62514;48.112;11.566;2024-03-23T07:43:49;475.60;;;150.43;;
355;SDS011;62514;48.112;11.566;2024-03-23T07:46:15;468.13;;;147.13;;
355;SDS011;62514;48.112;11.566;2024-03-23T07:48:42;467.07;;;142.97;;
355;SDS011;62514;48.112;11.566;2024-03-23T07:51:26;469.13;;;144.10;;
355;SDS011;62514;48.112;11.566;2024-03-23T07:53:52;454.87;;;135.13;;
355;SDS011;62514;48.112;11.566;2024-03-23T07:56:18;440.77;;;122.37;;
355;SDS011;62514;48.112;11.566;2024-03-23T07:58:45;442.20;;;124.27;;
355;SDS011;62514;48.112;11.566;2024-03-23T08:01:11;432.00;;;115.87;;
355;SDS011;62514;48.112;11.566;2024-03-23T08:03:43;427.90;;;114.00;;
355;SDS011;62514;48.112;11.566;2024-03-23T08:06:11;423.80;;;114.00;;
355;SDS011;62514;48.112;11.566;2024-03-23T08:08:41;426.67;;;107.27;;
355;SDS011;62514;48.112;11.566;2024-03-23T08:11:08;414.83;;;105.07;;
355;SDS011;62514;48.112;11.566;2024-03-23T08:13:35;391.13;;;94.37;;
355;SDS011;62514;48.112;11.566;2024-03-23T08:16:02;405.50;;;101.37;;
355;SDS011;62514;48.112;11.566;2024-03-23T08:18:29;405.97;;;102.93;;
355;SDS011;62514;48.112;11.566;2024-03-23T08:21:04;400.30;;;99.73;;
355;SDS011;62514;48.112;11.566;2024-03-23T08:23:32;383.97;;;94.10;;
355;SDS011;62514;48.112;11.566;2024-03-23T08:26:05;368.00;;;86.57;;
355;SDS011;62514;48.112;11.566;2024-03-23T08:28:35;381.47;;;94.13;;
355;SDS011;62514;48.112;11.566;2024-03-23T08:31:03;394.93;;;97.80;;
355;SDS011;62514;48.112;11.566;2024-03-23T08:33:31;389.40;;;96.60;;
355;SDS011;62514;48.112;11.566;2024-03-23T08:35:57;385.30;;;94.33;;
355;SDS011;62514;48.112;11.566;2024-03-23T08:38:25;377.83;;;93.93;;
355;SDS011;62514;48.112;11.566;2024-03-23T08:41:02;380.77;;;92.13;;
355;SDS011;62514;48.112;11.566;2024-03-23T08:43:33;370.13;;;88.67;;
355;SDS011;62514;48.112;11.566;2024-03-23T08:48:30;372.27;;;90.87;;
355;SDS011;62514;48.112;11.566;2024-03-23T08:51:00;357.47;;;83.80;;
355;SDS011;62514;48.112;11.566;2024-03-23T08:53:27;363.60;;;84.90;;
355;SDS011;62514;48.112;11.566;2024-03-23T08:55:59;355.33;;;87.60;;
355;SDS011;62514;48.112;11.566;2024-03-23T08:58:29;357.03;;;87.30;;
355;SDS011;62514;48.112;11.566;2024-03-23T09:00:57;350.10;;;84.07;;
355;SDS011;62514;48.112;11.566;2024-03-23T09:03:28;347.27;;;80.00;;
355;SDS011;62514;48.112;11.566;2024-03-23T09:05:54;349.33;;;82.00;;
355;SDS011;62514;48.112;11.566;2024-03-23T09:08:21;358.03;;;87.00;;
355;SDS011;62514;48.112;11.566;2024-03-23T09:10:47;350.87;;;83.27;;
355;SDS011;62514;48.112;11.566;2024-03-23T09:13:14;349.90;;;81.90;;
355;SDS011;62514;48.112;11.566;2024-03-23T09:15:48;344.80;;;78.97;;
355;SDS011;62514;48.112;11.566;2024-03-23T09:18:16;352.63;;;80.57;;
355;SDS011;62514;48.112;11.566;2024-03-23T09:20:42;344.93;;;80.70;;
355;SDS011;62514;48.112;11.566;2024-03-23T09:23:08;348.47;;;82.47;;
355;SDS011;62514;48.112;11.566;2024-03-23T09:25:38;338.77;;;76.97;;
355;SDS011;62514;48.112;11.566;2024-03-23T09:28:05;343.17;;;78.47;;
355;SDS011;62514;48.112;11.566;2024-03-23T09:30:34;342.87;;;79.20;;
355;SDS011;62514;48.112;11.566;2024-03-23T09:33:00;352.03;;;84.47;;
355;SDS011;62514;48.112;11.566;2024-03-23T09:35:26;344.73;;;80.57;;
355;SDS011;62514;48.112;11.566;2024-03-23T09:37:52;356.80;;;85.33;;
355;SDS011;62514;48.112;11.566;2024-03-23T09:40:18;356.00;;;85.30;;
355;SDS011;62514;48.112;11.566;2024-03-23T09:42:49;353.77;;;82.50;;
355;SDS011;62514;48.112;11.566;2024-03-23T09:45:38;343.60;;;79.00;;
355;SDS011;62514;48.112;11.566;2024-03-23T09:48:09;352.90;;;82.17;;
355;SDS011;62514;48.112;11.566;2024-03-23T09:50:37;334.67;;;76.50;;
355;SDS011;62514;48.112;11.566;2024-03-23T09:53:07;332.57;;;74.23;;
355;SDS011;62514;48.112;11.566;2024-03-23T09:55:34;332.53;;;73.57;;
355;SDS011;62514;48.112;11.566;2024-03-23T09:58:03;328.10;;;74.70;;
355;SDS011;62514;48.112;11.566;2024-03-23T10:00:30;335.27;;;74.90;;
355;SDS011;62514;48.112;11.566;2024-03-23T10:03:00;330.30;;;75.37;;
355;SDS011;62514;48.112;11.566;2024-03-23T10:05:28;324.77;;;71.90;;
355;SDS011;62514;48.112;11.566;2024-03-23T10:07:54;326.13;;;74.97;;
355;SDS011;62514;48.112;11.566;2024-03-23T10:10:20;334.70;;;76.80;;
355;SDS011;62514;48.112;11.566;2024-03-23T10:12:48;321.37;;;74.43;;
355;SDS011;62514;48.112;11.566;2024-03-23T10:15:18;322.00;;;74.00;;
355;SDS011;62514;48.112;11.566;2024-03-23T10:17:44;314.27;;;70.27;;
355;SDS011;62514;48.112;11.566;2024-03-23T10:20:10;328.73;;;73.57;;
355;SDS011;62514;48.112;11.566;2024-03-23T10:22:39;329.10;;;75.30;;
355;SDS011;62514;48.112;11.566;2024-03-23T10:25:09;326.73;;;72.27;;
355;SDS011;62514;48.112;11.566;2024-03-23T10:27:35;326.17;;;73.30;;
355;SDS011;62514;48.112;11.566;2024-03-23T10:30:08;331.10;;;75.67;;
355;SDS011;62514;48.112;11.566;2024-03-23T10:32:35;334.37;;;75.93;;
355;SDS011;62514;48.112;11.566;2024-03-23T10:35:17;328.17;;;74.73;;
355;SDS011;62514;48.112;11.566;2024-03-23T10:37:45;334.73;;;75.23;;
355;SDS011;62514;48.112;11.566;2024-03-23T10:40:20;334.23;;;73.40;;
355;SDS011;62514;48.112;11.566;2024-03-23T10:42:47;335.93;;;79.70;;
355;SDS011;62514;48.112;11.566;2024-03-23T10:45:13;331.90;;;73.93;;
355;SDS011;62514;48.112;11.566;2024-03-23T10:47:39;321.67;;;70.30;;
355;SDS011;62514;48.112;11.566;2024-03-23T10:50:05;334.53;;;76.67;;
355;SDS011;62514;48.112;11.566;2024-03-23T10:52:34;324.80;;;72.07;;
355;SDS011;62514;48.112;11.566;2024-03-23T10:55:02;326.30;;;73.20;;
355;SDS011;62514;48.112;11.566;2024-03-23T10:58:14;321.57;;;69.77;;
355;SDS011;62514;48.112;11.566;2024-03-23T11:00:24;317.17;;;71.70;;
355;SDS011;62514;48.112;11.566;2024-03-23T11:02:50;310.63;;;67.50;;
355;SDS011;62514;48.112;11.566;2024-03-23T11:07:52;321.13;;;72.67;;
355;SDS011;62514;48.112;11.566;2024-03-23T11:10:26;303.73;;;64.70;;
355;SDS011;62514;48.112;11.566;2024-03-23T11:12:56;322.40;;;71.67;;
355;SDS011;62514;48.112;11.566;2024-03-23T11:15:23;313.90;;;69.33;;
355;SDS011;62514;48.112;11.566;2024-03-23T11:18:05;316.67;;;70.07;;
355;SDS011;62514;48.112;11.566;2024-03-23T11:20:34;330.30;;;75.57;;
355;SDS011;62514;48.112;11.566;2024-03-23T11:23:01;327.80;;;74.43;;
355;SDS011;62514;48.112;11.566;2024-03-23T11:25:27;321.13;;;70.07;;
355;SDS011;62514;48.112;11.566;2024-03-23T11:30:25;333.53;;;75.63;;
355;SDS011;62514;48.112;11.566;2024-03-23T11:32:54;334.97;;;75.83;;
355;SDS011;62514;48.112;11.566;2024-03-23T11:40:38;326.57;;;73.63;;
355;SDS011;62514;48.112;11.566;2024-03-23T11:43:06;330.30;;;73.60;;
355;SDS011;62514;48.112;11.566;2024-03-23T11:45:42;329.77;;;73.73;;
355;SDS011;62514;48.112;11.566;2024-03-23T11:48:10;322.53;;;72.13;;
355;SDS011;62514;48.112;11.566;2024-03-23T11:50:41;334.67;;;76.30;;
355;SDS011;62514;48.112;11.566;2024-03-23T11:53:13;340.27;;;78.77;;
355;SDS011;62514;48.112;11.566;2024-03-23T11:58:25;336.27;;;74.90;;
355;SDS011;62514;48.112;11.566;2024-03-23T12:00:52;339.23;;;77.03;;
355;SDS011;62514;48.112;11.566;2024-03-23T12:03:27;344.37;;;78.90;;
355;SDS011;62514;48.112;11.566;2024-03-23T12:05:54;343.97;;;81.33;;
355;SDS011;62514;48.112;11.566;2024-03-23T12:08:25;344.07;;;79.70;;
355;SDS011;62514;48.112;11.566;2024-03-23T12:11:13;341.63;;;78.00;;
355;SDS011;62514;48.112;11.566;2024-03-23T12:13:43;341.93;;;79.07;;
355;SDS011;62514;48.112;11.566;2024-03-23T12:16:21;334.40;;;76.93;;
355;SDS011;62514;48.112;11.566;2024-03-23T12:18:52;332.77;;;73.80;;
355;SDS011;62514;48.112;11.566;2024-03-23T12:21:20;332.07;;;75.77;;
355;SDS011;62514;48.112;11.566;2024-03-23T12:23:48;341.27;;;79.50;;
355;SDS011;62514;48.112;11.566;2024-03-23T12:26:15;334.57;;;78.43;;
355;SDS011;62514;48.112;11.566;2024-03-23T12:28:43;335.27;;;77.40;;
355;SDS011;62514;48.112;11.566;2024-03-23T12:31:10;336.97;;;76.80;;
355;SDS011;62514;48.112;11.566;2024-03-23T12:33:36;335.17;;;77.17;;
355;SDS011;62514;48.112;11.566;2024-03-23T12:36:02;340.13;;;79.20;;
355;SDS011;62514;48.112;11.566;2024-03-23T12:38:29;337.43;;;79.43;;
355;SDS011;62514;48.112;11.566;2024-03-23T12:40:55;339.17;;;78.87;;
355;SDS011;62514;48.112;11.566;2024-03-23T12:43:21;332.80;;;77.83;;
355;SDS011;62514;48.112;11.566;2024-03-23T12:45:48;334.93;;;78.40;;
355;SDS011;62514;48.112;11.566;2024-03-23T12:48:15;326.03;;;74.97;;
355;SDS011;62514;48.112;11.566;2024-03-23T12:50:41;330.07;;;74.43;;
355;SDS011;62514;48.112;11.566;2024-03-23T12:53:07;326.03;;;75.80;;
355;SDS011;62514;48.112;11.566;2024-03-23T12:55:36;339.17;;;77.20;;
355;SDS011;62514;48.112;11.566;2024-03-23T12:58:02;338.47;;;79.47;;
355;SDS011;62514;48.112;11.566;2024-03-23T13:00:28;335.77;;;76.00;;
355;SDS011;62514;48.112;11.566;2024-03-23T13:02:54;343.43;;;79.97;;
355;SDS011;62514;48.112;11.566;2024-03-23T13:05:20;345.03;;;80.70;;
355;SDS011;62514;48.112;11.566;2024-03-23T13:07:46;346.67;;;79.03;;
355;SDS011;62514;48.112;11.566;2024-03-23T13:10:12;348.17;;;79.83;;
355;SDS011;62514;48.112;11.566;2024-03-23T13:12:40;355.63;;;85.43;;
355;SDS011;62514;48.112;11.566;2024-03-23T13:15:08;347.60;;;79.90;;
355;SDS011;62514;48.112;11.566;2024-03-23T13:17:34;358.17;;;83.60;;
355;SDS011;62514;48.112;11.566;2024-03-23T13:20:00;357.73;;;84.50;;
355;SDS011;62514;48.112;11.566;2024-03-23T13:22:26;340.13;;;76.10;;
355;SDS011;62514;48.112;11.566;2024-03-23T13:24:52;347.17;;;80.00;;
355;SDS011;62514;48.112;11.566;2024-03-23T13:27:18;346.70;;;82.37;;
355;SDS011;62514;48.112;11.566;2024-03-23T13:29:44;349.17;;;81.07;;
355;SDS011;62514;48.112;11.566;2024-03-23T13:32:12;346.50;;;80.30;;
355;SDS011;62514;48.112;11.566;2024-03-23T13:34:38;339.57;;;76.87;;
355;SDS011;62514;48.112;11.566;2024-03-23T13:37:05;350.50;;;81.63;;
355;SDS011;62514;48.112;11.566;2024-03-23T13:39:32;350.00;;;81.00;;
355;SDS011;62514;48.112;11.566;2024-03-23T13:41:58;344.23;;;77.87;;
355;SDS011;62514;48.112;11.566;2024-03-23T13:44:24;342.73;;;78.13;;
355;SDS011;62514;48.112;11.566;2024-03-23T13:46:51;331.00;;;74.07;;
355;SDS011;62514;48.112;11.566;2024-03-23T13:49:30;341.40;;;77.80;;
355;SDS011;62514;48.112;11.566;2024-03-23T13:51:57;346.73;;;82.63;;
355;SDS011;62514;48.112;11.566;2024-03-23T13:54:27;332.70;;;74.40;;
355;SDS011;62514;48.112;11.566;2024-03-23T13:56:56;338.83;;;78.23;;
355;SDS011;62514;48.112;11.566;2024-03-23T13:59:22;340.97;;;78.47;;
355;SDS011;62514;48.112;11.566;2024-03-23T14:01:49;336.03;;;75.23;;
355;SDS011;62514;48.112;11.566;2024-03-23T14:04:16;340.23;;;79.77;;
355;SDS011;62514;48.112;11.566;2024-03-23T14:06:44;360.30;;;90.53;;
355;SDS011;62514;48.112;11.566;2024-03-23T14:09:11;328.20;;;76.40;;
355;SDS011;62514;48.112;11.566;2024-03-23T14:11:37;306.23;;;65.50;;
355;SDS011;62514;48.112;11.566;2024-03-23T14:14:04;310.77;;;70.20;;
355;SDS011;62514;48.112;11.566;2024-03-23T14:16:30;306.83;;;69.10;;
355;SDS011;62514;48.112;11.566;2024-03-23T14:18:57;309.83;;;70.40;;
355;SDS011;62514;48.112;11.566;2024-03-23T14:21:23;305.33;;;69.77;;
355;SDS011;62514;48.112;11.566;2024-03-23T14:23:49;312.13;;;72.60;;
355;SDS011;62514;48.112;11.566;2024-03-23T14:26:15;308.27;;;70.20;;
355;SDS011;62514;48.112;11.566;2024-03-23T14:28:41;292.20;;;65.30;;
355;SDS011;62514;48.112;11.566;2024-03-23T14:31:07;294.70;;;65.73;;
355;SDS011;62514;48.112;11.566;2024-03-23T14:33:37;296.77;;;68.60;;
355;SDS011;62514;48.112;11.566;2024-03-23T14:36:04;291.63;;;65.10;;
355;SDS011;62514;48.112;11.566;2024-03-23T14:38:30;299.23;;;67.93;;
355;SDS011;62514;48.112;11.566;2024-03-23T14:41:00;305.80;;;72.90;;
355;SDS011;62514;48.112;11.566;2024-03-23T14:43:29;298.63;;;66.70;;
355;SDS011;62514;48.112;11.566;2024-03-23T14:46:11;300.90;;;68.47;;
355;SDS011;62514;48.112;11.566;2024-03-23T14:48:39;286.70;;;63.90;;
355;SDS011;62514;48.112;11.566;2024-03-23T14:51:07;311.27;;;74.77;;
355;SDS011;62514;48.112;11.566;2024-03-23T14:53:36;292.07;;;66.00;;
355;SDS011;62514;48.112;11.566;2024-03-23T14:56:07;294.53;;;64.87;;
355;SDS011;62514;48.112;11.566;2024-03-23T14:58:33;280.20;;;61.40;;
355;SDS011;62514;48.112;11.566;2024-03-23T15:01:03;293.43;;;65.23;;
355;SDS011;62514;48.112;11.566;2024-03-23T15:03:30;290.37;;;66.00;;
355;SDS011;62514;48.112;11.566;2024-03-23T15:05:57;289.57;;;66.17;;
355;SDS011;62514;48.112;11.566;2024-03-23T15:08:24;297.00;;;68.43;;
355;SDS011;62514;48.112;11.566;2024-03-23T15:10:51;289.10;;;64.20;;
355;SDS011;62514;48.112;11.566;2024-03-23T15:13:17;292.93;;;64.10;;
355;SDS011;62514;48.112;11.566;2024-03-23T15:15:43;294.83;;;67.57;;
355;SDS011;62514;48.112;11.566;2024-03-23T15:18:13;293.70;;;64.63;;
355;SDS011;62514;48.112;11.566;2024-03-23T15:20:57;293.27;;;65.57;;
355;SDS011;62514;48.112;11.566;2024-03-23T15:23:28;290.00;;;64.27;;
355;SDS011;62514;48.112;11.566;2024-03-23T15:25:55;294.30;;;64.87;;
355;SDS011;62514;48.112;11.566;2024-03-23T15:28:24;285.80;;;63.27;;